Time;durP1;ratioP1;P1;durP2;ratioP2;P2;SDS_P1;SDS_P2;PMS_P1;PMS_P2;Temp;Humidity;BMP_temperature;BMP_pressure;BME280_temperature;BME280_humidity;BME280_pressure;Samples;Min_cycle;Max_cycle;Signal;HPM_P1;HPM_P2
2022/03/23 00:01:31;;;;;;;7.47;5.53;;;;;;;;;;5059814;28;20671;-76
2022/03/23 00:03:57;;;;;;;7.00;5.07;;;;;;;;;;5059881;28;20232;-76
2022/03/23 00:06:24;;;;;;;7.63;5.37;;;;;;;;;;5059908;28;20183;-76
2022/03/23 00:08:50;;;;;;;7.03;5.40;;;;;;;;;;5059803;28;20214;-76
2022/03/23 00:11:17;;;;;;;10.17;5.70;;;;;;;;;;5076276;28;20597;-76
2022/03/23 00:13:43;;;;;;;7.73;5.50;;;;;;;;;;5076527;28;20202;-76
2022/03/23 00:16:10;;;;;;;7.13;5.40;;;;;;;;;;5076146;28;20230;-76
2022/03/23 00:18:36;;;;;;;6.93;5.30;;;;;;;;;;5076181;28;20195;-76
2022/03/23 00:21:02;;;;;;;7.37;5.57;;;;;;;;;;5076139;28;20181;-76
2022/03/23 00:23:28;;;;;;;8.47;5.40;;;;;;;;;;5094174;28;20175;-76
2022/03/23 00:25:54;;;;;;;6.87;5.40;;;;;;;;;;5076026;28;20179;-76
2022/03/23 00:28:21;;;;;;;8.03;5.37;;;;;;;;;;5076094;28;20284;-76
2022/03/23 00:30:49;;;;;;;7.17;5.67;;;;;;;;;;5076081;28;20269;-76
2022/03/23 00:33:15;;;;;;;8.80;5.40;;;;;;;;;;5075837;28;20389;-76
2022/03/23 00:35:41;;;;;;;7.93;5.83;;;;;;;;;;5075635;28;20238;-76
2022/03/23 00:38:07;;;;;;;8.20;5.30;;;;;;;;;;5059166;28;20230;-76
2022/03/23 00:40:33;;;;;;;7.27;5.60;;;;;;;;;;5075558;28;20546;-76
2022/03/23 00:43:01;;;;;;;8.27;6.20;;;;;;;;;;5093521;28;20536;-76
2022/03/23 00:45:28;;;;;;;7.60;5.57;;;;;;;;;;5059418;28;20182;-76
2022/03/23 00:47:54;;;;;;;6.43;5.20;;;;;;;;;;5075459;28;20195;-76
2022/03/23 00:50:20;;;;;;;9.33;5.70;;;;;;;;;;5058939;28;20198;-76
2022/03/23 00:52:47;;;;;;;7.60;5.37;;;;;;;;;;5058732;28;20182;-76
2022/03/23 00:55:15;;;;;;;6.13;5.13;;;;;;;;;;5058836;28;20191;-76
2022/03/23 00:57:41;;;;;;;7.63;5.27;;;;;;;;;;5058788;28;20651;-76
2022/03/23 01:00:12;;;;;;;8.07;5.47;;;;;;;;;;5074463;28;20175;-76
2022/03/23 01:02:39;;;;;;;7.67;5.17;;;;;;;;;;5074980;28;20640;-76
2022/03/23 01:05:05;;;;;;;8.00;5.77;;;;;;;;;;5075183;28;20175;-76
2022/03/23 01:07:31;;;;;;;6.87;5.83;;;;;;;;;;5075195;28;20611;-76
2022/03/23 01:09:58;;;;;;;9.27;5.60;;;;;;;;;;5093209;28;20181;-76
2022/03/23 01:12:24;;;;;;;7.50;5.03;;;;;;;;;;5058342;28;20180;-76
2022/03/23 01:14:51;;;;;;;7.33;5.87;;;;;;;;;;5058403;28;20182;-76
2022/03/23 01:17:17;;;;;;;10.30;5.67;;;;;;;;;;5074738;28;20287;-76
2022/03/23 01:19:43;;;;;;;7.33;5.60;;;;;;;;;;5058483;28;20184;-76
2022/03/23 01:22:09;;;;;;;8.20;6.27;;;;;;;;;;5058096;28;20692;-76
2022/03/23 01:24:35;;;;;;;7.80;5.83;;;;;;;;;;5074830;28;20196;-76
2022/03/23 01:27:03;;;;;;;10.20;5.77;;;;;;;;;;5058386;28;20182;-76
2022/03/23 01:29:29;;;;;;;7.57;5.47;;;;;;;;;;5058408;28;20265;-76
2022/03/23 01:31:55;;;;;;;7.40;5.80;;;;;;;;;;5058127;28;20177;-76
2022/03/23 01:34:21;;;;;;;9.70;5.90;;;;;;;;;;5074694;28;20546;-76
2022/03/23 01:36:47;;;;;;;8.77;5.93;;;;;;;;;;5057962;28;20250;-76
2022/03/23 01:39:14;;;;;;;8.47;6.20;;;;;;;;;;5074371;28;20196;-76
2022/03/23 01:41:40;;;;;;;8.10;6.03;;;;;;;;;;5074674;28;20179;-76
2022/03/23 01:44:13;;;;;;;10.50;6.60;;;;;;;;;;5074764;28;20205;-76
2022/03/23 01:46:58;;;;;;;12.43;6.60;;;;;;;;;;5092539;28;20554;-76
2022/03/23 01:49:24;;;;;;;8.47;6.20;;;;;;;;;;5092515;28;20221;-76
2022/03/23 01:51:50;;;;;;;9.13;6.40;;;;;;;;;;5057894;28;20180;-76
2022/03/23 01:54:16;;;;;;;8.67;6.10;;;;;;;;;;5057925;28;20180;-76
2022/03/23 01:56:42;;;;;;;8.40;6.07;;;;;;;;;;5074499;28;20210;-76
2022/03/23 01:59:09;;;;;;;8.57;6.27;;;;;;;;;;5092493;28;20188;-76
2022/03/23 02:01:36;;;;;;;10.37;5.97;;;;;;;;;;5074158;28;20174;-76
2022/03/23 02:04:02;;;;;;;8.50;6.20;;;;;;;;;;5074772;28;20180;-76
2022/03/23 02:06:28;;;;;;;8.30;6.13;;;;;;;;;;5075016;28;20176;-76
2022/03/23 02:08:54;;;;;;;8.73;6.53;;;;;;;;;;5074293;28;20203;-76
2022/03/23 02:11:20;;;;;;;9.13;6.97;;;;;;;;;;5057063;28;20198;-76
2022/03/23 02:13:47;;;;;;;10.27;6.27;;;;;;;;;;5074335;28;20176;-76
2022/03/23 02:16:13;;;;;;;10.97;7.03;;;;;;;;;;5092682;28;20197;-76
2022/03/23 02:18:40;;;;;;;9.00;6.80;;;;;;;;;;5057569;28;20193;-76
2022/03/23 02:21:06;;;;;;;10.23;6.67;;;;;;;;;;5092048;28;20166;-76
2022/03/23 02:23:32;;;;;;;10.07;6.80;;;;;;;;;;5071616;28;20189;-76
2022/03/23 02:26:00;;;;;;;12.97;6.57;;;;;;;;;;5054615;28;20186;-76
2022/03/23 02:28:27;;;;;;;9.93;7.03;;;;;;;;;;5094612;22;20243;-76
2022/03/23 02:30:54;;;;;;;10.97;7.23;;;;;;;;;;5077942;28;20216;-76
2022/03/23 02:33:20;;;;;;;9.10;6.57;;;;;;;;;;5112663;28;20221;-76
2022/03/23 02:35:48;;;;;;;10.80;7.33;;;;;;;;;;5094656;28;20750;-76
2022/03/23 02:38:14;;;;;;;10.97;6.87;;;;;;;;;;5074555;28;20193;-77
2022/03/23 02:40:41;;;;;;;8.13;6.57;;;;;;;;;;5074174;28;20178;-76
2022/03/23 02:43:07;;;;;;;9.20;7.13;;;;;;;;;;5091856;28;20177;-76
2022/03/23 02:45:33;;;;;;;9.03;6.93;;;;;;;;;;5073799;28;20265;-76
2022/03/23 02:47:59;;;;;;;9.80;6.80;;;;;;;;;;5074047;28;20233;-76
2022/03/23 02:50:26;;;;;;;10.57;6.70;;;;;;;;;;5074558;28;20268;-76
2022/03/23 03:01:52;;;;;;;10.33;6.60;;;;;;;;;;5092230;28;20191;-76
2022/03/23 03:04:18;;;;;;;7.90;6.60;;;;;;;;;;5019267;28;20173;-76
2022/03/23 03:06:45;;;;;;;9.93;7.00;;;;;;;;;;5073774;28;20576;-76
2022/03/23 03:09:11;;;;;;;8.43;6.57;;;;;;;;;;5090574;28;20200;-76
2022/03/23 03:11:38;;;;;;;9.43;6.80;;;;;;;;;;5090597;28;20216;-76
2022/03/23 03:14:04;;;;;;;8.10;6.33;;;;;;;;;;5073780;28;20271;-76
2022/03/23 03:16:30;;;;;;;9.93;6.93;;;;;;;;;;5073656;28;20234;-76
2022/03/23 03:18:56;;;;;;;10.03;6.87;;;;;;;;;;5091521;28;20197;-76
2022/03/23 03:21:23;;;;;;;10.23;6.47;;;;;;;;;;5090196;28;20610;-76
2022/03/23 03:23:49;;;;;;;10.97;7.23;;;;;;;;;;5092384;28;20173;-76
2022/03/23 03:26:16;;;;;;;9.97;7.00;;;;;;;;;;5077372;28;20180;-76
2022/03/23 03:28:42;;;;;;;9.97;6.87;;;;;;;;;;5093827;28;20269;-76
2022/03/23 03:34:12;;;;;;;9.50;6.80;;;;;;;;;;5095436;28;20218;-76
2022/03/23 03:36:38;;;;;;;7.67;6.40;;;;;;;;;;5093956;28;20203;-76
2022/03/23 03:39:05;;;;;;;9.30;6.57;;;;;;;;;;5076982;28;20717;-76
2022/03/23 03:41:31;;;;;;;7.90;6.27;;;;;;;;;;5093609;28;20172;-76
2022/03/23 03:43:58;;;;;;;8.23;6.40;;;;;;;;;;5076879;28;20654;-76
2022/03/23 03:46:24;;;;;;;8.60;6.27;;;;;;;;;;5093908;28;20185;-76
2022/03/23 03:48:50;;;;;;;8.90;6.63;;;;;;;;;;5093504;28;20293;-76
2022/03/23 03:51:17;;;;;;;9.03;6.37;;;;;;;;;;5076775;28;20180;-76
2022/03/23 03:53:43;;;;;;;8.63;6.67;;;;;;;;;;5093591;28;20176;-76
2022/03/23 03:56:09;;;;;;;8.83;6.37;;;;;;;;;;5093519;28;20189;-76
2022/03/23 03:58:36;;;;;;;7.97;6.73;;;;;;;;;;5076571;28;20221;-76
2022/03/23 04:01:02;;;;;;;8.77;6.40;;;;;;;;;;5093385;28;20195;-76
2022/03/23 04:03:28;;;;;;;8.87;7.07;;;;;;;;;;5093222;28;20168;-76
2022/03/23 04:05:54;;;;;;;10.00;6.77;;;;;;;;;;5093389;28;20184;-76
2022/03/23 04:08:20;;;;;;;9.93;7.20;;;;;;;;;;5076456;28;20201;-76
2022/03/23 04:10:46;;;;;;;9.43;7.03;;;;;;;;;;5093161;28;20626;-76
2022/03/23 04:13:12;;;;;;;10.03;7.37;;;;;;;;;;5076017;28;20626;-76
2022/03/23 04:15:38;;;;;;;9.87;6.60;;;;;;;;;;5094158;28;20642;-76
2022/03/23 04:18:07;;;;;;;11.07;7.30;;;;;;;;;;5093042;28;20575;-76
2022/03/23 04:20:33;;;;;;;13.50;7.07;;;;;;;;;;5094213;28;20226;-76
2022/03/23 04:22:59;;;;;;;9.70;6.63;;;;;;;;;;5076088;28;20180;-76
2022/03/23 04:25:25;;;;;;;10.40;6.83;;;;;;;;;;5076168;28;20175;-76
2022/03/23 04:27:52;;;;;;;10.03;7.50;;;;;;;;;;5092571;28;20208;-76
2022/03/23 04:30:19;;;;;;;9.57;6.83;;;;;;;;;;5094080;28;20169;-76
2022/03/23 04:32:46;;;;;;;10.53;6.87;;;;;;;;;;5092691;28;20183;-76
2022/03/23 04:35:12;;;;;;;10.87;7.13;;;;;;;;;;5092673;28;20255;-76
2022/03/23 04:37:39;;;;;;;8.03;6.50;;;;;;;;;;5075860;28;20263;-76
2022/03/23 04:40:05;;;;;;;9.33;6.90;;;;;;;;;;5075967;28;20183;-77
2022/03/23 04:42:32;;;;;;;8.93;6.83;;;;;;;;;;5075840;28;20172;-76
2022/03/23 04:44:58;;;;;;;10.50;7.00;;;;;;;;;;5075857;28;20214;-76
2022/03/23 04:47:24;;;;;;;10.20;6.83;;;;;;;;;;5092397;28;20172;-76
2022/03/23 04:49:50;;;;;;;9.27;6.50;;;;;;;;;;5075787;28;20204;-76
2022/03/23 04:52:17;;;;;;;13.07;6.87;;;;;;;;;;5092229;28;20594;-76
2022/03/23 04:54:43;;;;;;;9.70;7.40;;;;;;;;;;5075911;28;20313;-76
2022/03/23 04:57:10;;;;;;;9.10;7.07;;;;;;;;;;5092291;28;20235;-76
2022/03/23 04:59:36;;;;;;;10.87;6.93;;;;;;;;;;5075410;28;20207;-76
2022/03/23 05:02:02;;;;;;;10.20;7.23;;;;;;;;;;5092028;28;20169;-76
2022/03/23 05:04:28;;;;;;;9.87;6.77;;;;;;;;;;5093475;28;20164;-76
2022/03/23 05:06:54;;;;;;;11.23;7.50;;;;;;;;;;5075405;28;20176;-76
2022/03/23 05:09:20;;;;;;;11.37;7.73;;;;;;;;;;5093095;28;20184;-76
2022/03/23 05:11:46;;;;;;;9.37;6.93;;;;;;;;;;5075168;28;20567;-77
2022/03/23 05:14:12;;;;;;;11.43;7.80;;;;;;;;;;5092045;28;20260;-76
2022/03/23 05:16:38;;;;;;;9.33;7.57;;;;;;;;;;5075127;28;20228;-76
2022/03/23 05:19:04;;;;;;;9.90;7.43;;;;;;;;;;5091847;28;20256;-76
2022/03/23 05:21:30;;;;;;;10.27;8.00;;;;;;;;;;5074940;28;20207;-76
2022/03/23 05:23:56;;;;;;;10.80;7.63;;;;;;;;;;5091735;28;20202;-76
2022/03/23 05:26:23;;;;;;;14.43;7.87;;;;;;;;;;5091698;28;20177;-76
2022/03/23 05:28:49;;;;;;;11.67;7.77;;;;;;;;;;5091482;28;20223;-76
2022/03/23 05:31:15;;;;;;;12.80;7.83;;;;;;;;;;5092869;28;20172;-76
2022/03/23 05:33:41;;;;;;;10.23;7.93;;;;;;;;;;5074649;28;20216;-76
2022/03/23 05:36:07;;;;;;;12.77;8.03;;;;;;;;;;5074718;28;20230;-76
2022/03/23 05:38:33;;;;;;;11.27;7.47;;;;;;;;;;5074636;28;20189;-76
2022/03/23 05:40:59;;;;;;;10.60;7.30;;;;;;;;;;5091699;28;20172;-76
2022/03/23 05:43:25;;;;;;;10.60;7.30;;;;;;;;;;5091328;28;20172;-76
2022/03/23 05:45:51;;;;;;;10.40;7.50;;;;;;;;;;5074274;28;20177;-76
2022/03/23 05:48:17;;;;;;;12.33;7.73;;;;;;;;;;5091245;28;20200;-76
2022/03/23 05:50:43;;;;;;;10.13;7.33;;;;;;;;;;5090716;28;20176;-76
2022/03/23 05:53:09;;;;;;;10.83;7.67;;;;;;;;;;5074440;28;20182;-79
2022/03/23 05:55:36;;;;;;;9.20;7.40;;;;;;;;;;5075058;28;20246;-79
2022/03/23 05:58:03;;;;;;;10.67;7.53;;;;;;;;;;5074653;28;20667;-76
2022/03/23 06:00:29;;;;;;;10.00;6.83;;;;;;;;;;5075099;28;20168;-78
2022/03/23 06:02:55;;;;;;;10.63;7.77;;;;;;;;;;5074445;28;20180;-77
2022/03/23 06:05:21;;;;;;;9.77;7.47;;;;;;;;;;5074311;28;20177;-77
2022/03/23 06:07:47;;;;;;;8.80;7.40;;;;;;;;;;5090874;28;20187;-77
2022/03/23 06:10:13;;;;;;;12.60;7.40;;;;;;;;;;5074618;28;20221;-77
2022/03/23 06:12:39;;;;;;;9.80;6.97;;;;;;;;;;5074477;28;20180;-76
2022/03/23 06:15:08;;;;;;;12.00;7.50;;;;;;;;;;5091106;28;20172;-76
2022/03/23 06:17:34;;;;;;;10.17;7.53;;;;;;;;;;5090963;28;20257;-76
2022/03/23 06:20:00;;;;;;;10.93;7.73;;;;;;;;;;5074378;28;20172;-76
2022/03/23 06:22:27;;;;;;;10.73;7.53;;;;;;;;;;5074026;28;20204;-77
2022/03/23 06:24:52;;;;;;;11.23;7.63;;;;;;;;;;5074214;28;20176;-76
2022/03/23 06:27:18;;;;;;;10.47;7.50;;;;;;;;;;5074379;28;20207;-77
2022/03/23 06:29:44;;;;;;;12.53;8.67;;;;;;;;;;5090890;28;20212;-76
2022/03/23 06:32:11;;;;;;;11.07;7.73;;;;;;;;;;5073996;28;20190;-77
2022/03/23 06:34:37;;;;;;;12.10;8.13;;;;;;;;;;5074258;28;20211;-76
2022/03/23 06:37:03;;;;;;;11.07;8.23;;;;;;;;;;5073952;28;20235;-76
2022/03/23 06:39:32;;;;;;;12.40;8.03;;;;;;;;;;5073971;28;20196;-77
2022/03/23 06:41:59;;;;;;;12.97;8.93;;;;;;;;;;5073863;28;20183;-76
2022/03/23 06:44:25;;;;;;;11.07;7.10;;;;;;;;;;5074156;28;20211;-76
2022/03/23 06:46:51;;;;;;;12.93;7.87;;;;;;;;;;5074317;28;20233;-77
2022/03/23 06:49:17;;;;;;;11.63;8.00;;;;;;;;;;5090884;28;20215;-76
2022/03/23 06:51:43;;;;;;;10.17;7.40;;;;;;;;;;5074232;28;20180;-77
2022/03/23 06:54:09;;;;;;;12.00;8.30;;;;;;;;;;5074040;28;20184;-76
2022/03/23 06:56:35;;;;;;;11.60;8.37;;;;;;;;;;5090477;28;20204;-76
2022/03/23 06:59:03;;;;;;;12.77;8.23;;;;;;;;;;5076223;28;20222;-76
2022/03/23 07:01:30;;;;;;;10.60;8.30;;;;;;;;;;5094381;28;20207;-77
2022/03/23 07:03:56;;;;;;;10.80;8.37;;;;;;;;;;5094355;28;20642;-77
2022/03/23 07:06:22;;;;;;;10.63;7.73;;;;;;;;;;5094705;28;20169;-77
2022/03/23 07:11:32;;;;;;;11.80;9.10;;;;;;;;;;5080407;28;20233;-75
2022/03/23 07:13:58;;;;;;;10.33;7.80;;;;;;;;;;5095640;28;20180;-75
2022/03/23 07:16:24;;;;;;;13.37;8.13;;;;;;;;;;5094082;28;20249;-76
2022/03/23 07:18:50;;;;;;;9.80;7.57;;;;;;;;;;5094354;28;20273;-75
2022/03/23 07:21:17;;;;;;;13.83;8.17;;;;;;;;;;5077221;28;20267;-76
2022/03/23 07:23:43;;;;;;;11.70;8.00;;;;;;;;;;5094193;28;20427;-75
2022/03/23 07:26:09;;;;;;;11.10;8.63;;;;;;;;;;5094052;28;20181;-75
2022/03/23 07:28:35;;;;;;;11.97;7.90;;;;;;;;;;5095296;28;20230;-76
2022/03/23 07:31:01;;;;;;;12.47;8.57;;;;;;;;;;5094072;28;20281;-76
2022/03/23 07:33:30;;;;;;;13.00;9.30;;;;;;;;;;5077254;28;20188;-75
2022/03/23 07:35:56;;;;;;;12.47;9.03;;;;;;;;;;5094157;28;20193;-75
2022/03/23 07:38:22;;;;;;;13.90;8.87;;;;;;;;;;5093934;28;20199;-76
2022/03/23 07:40:48;;;;;;;12.37;9.30;;;;;;;;;;5093644;28;20199;-76
2022/03/23 07:43:14;;;;;;;13.27;9.20;;;;;;;;;;5094860;28;20212;-75
2022/03/23 07:45:40;;;;;;;12.63;8.70;;;;;;;;;;5077063;28;20188;-75
2022/03/23 07:48:06;;;;;;;12.83;9.63;;;;;;;;;;5077095;28;20197;-75
2022/03/23 07:50:32;;;;;;;11.40;8.30;;;;;;;;;;5093846;28;20207;-76
2022/03/23 07:52:58;;;;;;;12.03;8.43;;;;;;;;;;5093541;28;20172;-76
2022/03/23 07:55:25;;;;;;;15.80;9.63;;;;;;;;;;5076726;28;20195;-76
2022/03/23 07:57:51;;;;;;;13.07;9.30;;;;;;;;;;5093370;28;20204;-76
2022/03/23 08:00:17;;;;;;;12.07;8.40;;;;;;;;;;5076566;28;20181;-75
2022/03/23 08:02:44;;;;;;;14.10;9.20;;;;;;;;;;5094639;28;20172;-76
2022/03/23 08:05:10;;;;;;;14.43;9.47;;;;;;;;;;5076727;28;20199;-76
2022/03/23 08:07:36;;;;;;;11.73;8.40;;;;;;;;;;5093339;28;20175;-76
2022/03/23 08:10:03;;;;;;;10.50;8.00;;;;;;;;;;5092937;28;20179;-77
2022/03/23 08:12:29;;;;;;;14.67;9.43;;;;;;;;;;5093115;28;20182;-76
2022/03/23 08:14:55;;;;;;;12.03;8.53;;;;;;;;;;5093111;28;20193;-77
2022/03/23 08:17:21;;;;;;;12.63;9.50;;;;;;;;;;5076338;28;20307;-77
2022/03/23 08:20:32;;;;;;;12.13;9.10;;;;;;;;;;5092982;28;20310;-77
2022/03/23 08:22:33;;;;;;;12.50;9.47;;;;;;;;;;5078865;28;20180;-76
2022/03/23 08:24:59;;;;;;;13.73;9.50;;;;;;;;;;5076130;28;20544;-76
2022/03/23 08:27:25;;;;;;;13.37;9.60;;;;;;;;;;5092827;28;20175;-77
2022/03/23 08:29:52;;;;;;;13.23;9.30;;;;;;;;;;5076448;28;20224;-77
2022/03/23 08:32:18;;;;;;;14.30;10.03;;;;;;;;;;5075995;28;20631;-77
2022/03/23 08:34:44;;;;;;;14.40;10.13;;;;;;;;;;5075970;28;20176;-77
2022/03/23 08:37:10;;;;;;;14.70;10.23;;;;;;;;;;5076123;28;20216;-76
2022/03/23 08:39:36;;;;;;;13.57;9.67;;;;;;;;;;5076405;28;20204;-77
2022/03/23 08:42:02;;;;;;;14.10;9.70;;;;;;;;;;5076005;28;20184;-76
2022/03/23 08:44:28;;;;;;;12.67;9.83;;;;;;;;;;5093363;28;20173;-76
2022/03/23 08:46:54;;;;;;;12.13;9.57;;;;;;;;;;5076533;28;20585;-77
2022/03/23 08:49:20;;;;;;;12.87;9.30;;;;;;;;;;5075559;28;20207;-77
2022/03/23 08:51:46;;;;;;;13.97;9.77;;;;;;;;;;5076211;28;20628;-76
2022/03/23 08:54:12;;;;;;;14.07;9.40;;;;;;;;;;5076442;28;20683;-76
2022/03/23 08:56:38;;;;;;;14.60;10.30;;;;;;;;;;5093916;28;20653;-77
2022/03/23 08:59:04;;;;;;;14.30;9.33;;;;;;;;;;5075810;28;20653;-76
2022/03/23 09:01:30;;;;;;;14.40;9.40;;;;;;;;;;5075701;28;20183;-76
2022/03/23 09:04:00;;;;;;;12.37;9.77;;;;;;;;;;5076213;28;20176;-76
2022/03/23 09:06:26;;;;;;;13.30;9.80;;;;;;;;;;5076576;28;20157;-76
2022/03/23 09:08:52;;;;;;;13.10;9.63;;;;;;;;;;5094032;28;20195;-76
2022/03/23 09:11:18;;;;;;;12.30;9.77;;;;;;;;;;5075612;28;20188;-76
2022/03/23 09:13:47;;;;;;;13.67;9.90;;;;;;;;;;5075734;28;20605;-76
2022/03/23 09:16:13;;;;;;;12.30;9.40;;;;;;;;;;5092606;28;20204;-76
2022/03/23 09:18:39;;;;;;;11.77;8.80;;;;;;;;;;5092532;28;20193;-76
2022/03/23 09:21:05;;;;;;;13.60;9.67;;;;;;;;;;5075131;28;20627;-76
2022/03/23 09:23:31;;;;;;;12.50;9.13;;;;;;;;;;5075677;28;20173;-76
2022/03/23 09:25:57;;;;;;;13.63;9.90;;;;;;;;;;5075776;28;20184;-76
2022/03/23 09:28:23;;;;;;;11.40;8.53;;;;;;;;;;5092064;28;20667;-76
2022/03/23 09:30:49;;;;;;;9.43;7.50;;;;;;;;;;5075694;28;20183;-76
2022/03/23 09:33:15;;;;;;;10.53;7.87;;;;;;;;;;5093139;28;20192;-76
2022/03/23 09:35:41;;;;;;;11.70;8.47;;;;;;;;;;5092319;28;20191;-76
2022/03/23 09:38:08;;;;;;;10.27;8.07;;;;;;;;;;5091920;28;20199;-76
2022/03/23 09:40:34;;;;;;;8.83;7.13;;;;;;;;;;5075493;28;20183;-76
2022/03/23 09:43:02;;;;;;;9.37;8.37;;;;;;;;;;5091779;28;20232;-76
2022/03/23 09:48:01;;;;;;;10.33;7.90;;;;;;;;;;5076313;28;20294;-76
2022/03/23 09:50:28;;;;;;;10.27;8.00;;;;;;;;;;5091807;28;20172;-76
2022/03/23 09:52:54;;;;;;;10.37;7.43;;;;;;;;;;5074986;28;20548;-76
2022/03/23 09:55:21;;;;;;;8.37;7.00;;;;;;;;;;5093014;28;20169;-76
2022/03/23 09:57:47;;;;;;;8.83;7.20;;;;;;;;;;5092845;28;20799;-76
2022/03/23 10:00:13;;;;;;;9.83;7.80;;;;;;;;;;5091929;28;20254;-77
2022/03/23 10:02:39;;;;;;;8.63;7.67;;;;;;;;;;5091795;28;20180;-76
2022/03/23 10:05:35;;;;;;;12.23;8.50;;;;;;;;;;5091667;28;20171;-76
2022/03/23 10:08:10;;;;;;;10.03;7.33;;;;;;;;;;5093144;28;20223;-76
2022/03/23 10:10:55;;;;;;;11.87;8.30;;;;;;;;;;5091559;28;20533;-76
2022/03/23 10:13:40;;;;;;;8.00;7.13;;;;;;;;;;5091468;28;20263;-76
2022/03/23 10:16:25;;;;;;;9.70;8.47;;;;;;;;;;5091840;28;20563;-76
2022/03/23 10:18:51;;;;;;;11.30;8.87;;;;;;;;;;5091725;28;20206;-76
2022/03/23 10:21:17;;;;;;;9.33;7.83;;;;;;;;;;5091223;28;20665;-76
2022/03/23 10:24:02;;;;;;;10.63;7.70;;;;;;;;;;5092879;28;20170;-76
2022/03/23 10:26:29;;;;;;;8.17;7.37;;;;;;;;;;5092546;28;20208;-76
2022/03/23 10:28:56;;;;;;;8.87;7.60;;;;;;;;;;5091036;28;20216;-76
2022/03/23 10:31:24;;;;;;;7.80;6.80;;;;;;;;;;5074969;28;20194;-76
2022/03/23 10:34:07;;;;;;;7.70;6.30;;;;;;;;;;5095577;28;20233;-76
2022/03/23 10:36:34;;;;;;;8.63;6.57;;;;;;;;;;5080028;28;20287;-76
2022/03/23 10:39:04;;;;;;;8.30;6.57;;;;;;;;;;5095371;28;20196;-76
2022/03/23 10:41:30;;;;;;;8.47;6.47;;;;;;;;;;5096424;28;20196;-77
2022/03/23 10:43:57;;;;;;;7.73;6.33;;;;;;;;;;5095628;28;20176;-76
2022/03/23 10:46:23;;;;;;;7.47;5.53;;;;;;;;;;5095298;28;20203;-76
2022/03/23 10:48:51;;;;;;;7.67;6.90;;;;;;;;;;5096686;28;20196;-74
2022/03/23 10:51:25;;;;;;;7.77;6.20;;;;;;;;;;5095013;28;20225;-73
2022/03/23 10:53:51;;;;;;;7.10;5.70;;;;;;;;;;5096460;28;20188;-74
2022/03/23 10:56:28;;;;;;;7.10;6.30;;;;;;;;;;5078692;28;20200;-74
2022/03/23 10:59:32;;;;;;;7.33;6.30;;;;;;;;;;5096237;28;20187;-74
2022/03/23 11:01:59;;;;;;;6.43;5.37;;;;;;;;;;5094825;28;20186;-73
2022/03/23 11:04:29;;;;;;;6.33;5.67;;;;;;;;;;5078233;28;20623;-75
2022/03/23 11:06:56;;;;;;;6.93;5.57;;;;;;;;;;5095019;28;20331;-74
2022/03/23 11:18:06;;;;;;;6.30;5.70;;;;;;;;;;5095991;28;20207;-74
2022/03/23 11:20:53;;;;;;;6.13;5.40;;;;;;;;;;5096034;28;20161;-74
2022/03/23 11:23:27;;;;;;;6.10;5.50;;;;;;;;;;5094428;28;20168;-74
2022/03/23 11:25:54;;;;;;;6.40;5.77;;;;;;;;;;5078130;28;20172;-74
2022/03/23 11:28:21;;;;;;;7.63;6.03;;;;;;;;;;5094469;28;20250;-74
2022/03/23 11:30:48;;;;;;;6.30;5.70;;;;;;;;;;5077737;28;20184;-75
2022/03/23 11:33:16;;;;;;;6.80;5.97;;;;;;;;;;5094626;28;20180;-74
2022/03/23 11:35:47;;;;;;;7.67;6.30;;;;;;;;;;5094267;28;20188;-74
2022/03/23 11:38:14;;;;;;;6.77;5.67;;;;;;;;;;5094266;28;20188;-75
2022/03/23 11:40:44;;;;;;;6.77;5.70;;;;;;;;;;5094580;28;20176;-74
2022/03/23 11:43:11;;;;;;;6.67;5.50;;;;;;;;;;5095081;28;20160;-74
2022/03/23 11:45:41;;;;;;;6.97;5.67;;;;;;;;;;5093782;28;20176;-74
2022/03/23 11:48:30;;;;;;;8.37;6.10;;;;;;;;;;5094268;28;20614;-74
2022/03/23 11:54:08;;;;;;;8.10;6.23;;;;;;;;;;5095352;28;20163;-74
2022/03/23 11:56:46;;;;;;;6.87;6.17;;;;;;;;;;5094061;28;20199;-74
2022/03/23 11:59:19;;;;;;;7.70;6.47;;;;;;;;;;5095045;28;20621;-74
2022/03/23 12:01:45;;;;;;;7.23;6.53;;;;;;;;;;5093735;28;20172;-74
2022/03/23 12:04:14;;;;;;;7.13;6.30;;;;;;;;;;5094066;28;20181;-74
2022/03/23 12:06:44;;;;;;;6.67;5.97;;;;;;;;;;5093850;28;20180;-74
2022/03/23 12:09:29;;;;;;;6.47;5.77;;;;;;;;;;5093990;28;20223;-74
2022/03/23 12:11:55;;;;;;;7.27;6.57;;;;;;;;;;5094869;28;20165;-74
2022/03/23 12:14:27;;;;;;;7.07;6.37;;;;;;;;;;5093601;28;20654;-74
2022/03/23 12:16:53;;;;;;;7.67;6.87;;;;;;;;;;5093511;28;20245;-74
2022/03/23 12:19:20;;;;;;;7.53;6.63;;;;;;;;;;5093473;28;20192;-74
2022/03/23 12:21:50;;;;;;;7.10;6.40;;;;;;;;;;5093674;28;20178;-74
2022/03/23 12:24:25;;;;;;;7.27;6.57;;;;;;;;;;5094743;28;20626;-74
2022/03/23 12:26:53;;;;;;;8.33;6.60;;;;;;;;;;5095029;28;20198;-74
2022/03/23 12:29:28;;;;;;;7.57;6.87;;;;;;;;;;5076373;28;20226;-74
2022/03/23 12:32:06;;;;;;;7.60;6.83;;;;;;;;;;5076382;28;20168;-75
2022/03/23 12:34:32;;;;;;;7.93;7.13;;;;;;;;;;5093498;28;20204;-74
2022/03/23 12:37:09;;;;;;;8.17;6.40;;;;;;;;;;5094259;28;20188;-74
2022/03/23 12:39:39;;;;;;;8.10;7.30;;;;;;;;;;5093290;28;20220;-74
2022/03/23 12:42:11;;;;;;;7.60;6.80;;;;;;;;;;5094208;28;20206;-74
2022/03/23 12:44:38;;;;;;;8.48;6.82;;;;;;;;;;5094237;28;20176;-74
2022/03/23 12:47:06;;;;;;;7.85;7.13;;;;;;;;;;5092955;28;20176;-74
2022/03/23 12:58:12;;;;;;;8.00;7.10;;;;;;;;;;5093928;28;20222;-74
2022/03/23 13:00:40;;;;;;;7.45;6.75;;;;;;;;;;5093037;28;20560;-74
2022/03/23 13:03:06;;;;;;;9.30;7.18;;;;;;;;;;5076106;28;20210;-74
2022/03/23 13:05:57;;;;;;;7.88;7.03;;;;;;;;;;5092585;28;20172;-74
2022/03/23 13:08:38;;;;;;;8.13;7.30;;;;;;;;;;5092533;28;20275;-74
2022/03/23 13:11:04;;;;;;;8.27;7.50;;;;;;;;;;5092590;28;20180;-74
2022/03/23 13:13:32;;;;;;;8.40;7.55;;;;;;;;;;5092248;28;20167;-75
2022/03/23 13:15:58;;;;;;;8.20;7.38;;;;;;;;;;5093581;28;20256;-75
2022/03/23 13:18:28;;;;;;;9.98;7.70;;;;;;;;;;5075858;28;20196;-75
2022/03/23 13:20:57;;;;;;;7.95;7.25;;;;;;;;;;5092322;28;20168;-75
2022/03/23 13:23:23;;;;;;;7.80;7.05;;;;;;;;;;5075699;28;20188;-75
2022/03/23 13:26:09;;;;;;;7.90;7.15;;;;;;;;;;5092538;28;20587;-74
2022/03/23 13:28:42;;;;;;;7.50;6.80;;;;;;;;;;5092276;28;20203;-74
2022/03/23 13:31:09;;;;;;;7.28;6.50;;;;;;;;;;5092343;28;20165;-75
2022/03/23 13:33:40;;;;;;;7.72;6.93;;;;;;;;;;5091996;28;20197;-75
2022/03/23 13:36:06;;;;;;;8.52;6.18;;;;;;;;;;5092113;28;20200;-75
2022/03/23 13:38:35;;;;;;;7.75;6.95;;;;;;;;;;5075325;28;20200;-75
2022/03/23 13:43:51;;;;;;;8.73;7.20;;;;;;;;;;5093622;28;20236;-74
2022/03/23 13:46:17;;;;;;;8.52;7.03;;;;;;;;;;5075675;28;20187;-75
2022/03/23 13:48:43;;;;;;;8.32;7.50;;;;;;;;;;5075158;28;20241;-74
2022/03/23 13:51:09;;;;;;;7.88;7.18;;;;;;;;;;5074918;28;20215;-75
2022/03/23 13:53:36;;;;;;;8.07;6.88;;;;;;;;;;5091734;28;20185;-75
2022/03/23 13:56:02;;;;;;;8.43;6.60;;;;;;;;;;5091640;28;20862;-74
2022/03/23 13:58:28;;;;;;;7.85;7.10;;;;;;;;;;5075284;28;20196;-75
2022/03/23 14:00:56;;;;;;;7.68;6.65;;;;;;;;;;5092006;28;20192;-75
2022/03/23 14:03:31;;;;;;;8.48;6.57;;;;;;;;;;5092721;28;20683;-75
2022/03/23 14:06:09;;;;;;;7.50;6.80;;;;;;;;;;5091650;28;20172;-74
2022/03/23 14:08:36;;;;;;;7.50;6.78;;;;;;;;;;5074437;28;20569;-75
2022/03/23 14:11:03;;;;;;;7.60;6.90;;;;;;;;;;5074989;28;20203;-75
2022/03/23 14:13:29;;;;;;;6.93;6.32;;;;;;;;;;5092707;28;20213;-75
2022/03/23 14:15:59;;;;;;;7.38;6.15;;;;;;;;;;5074831;28;20204;-75
2022/03/23 14:18:31;;;;;;;8.40;6.10;;;;;;;;;;5075531;28;20310;-75
2022/03/23 14:20:58;;;;;;;7.53;6.80;;;;;;;;;;5091445;28;20168;-75
2022/03/23 14:23:31;;;;;;;7.35;6.57;;;;;;;;;;5092472;28;20170;-75
2022/03/23 14:26:23;;;;;;;7.57;6.75;;;;;;;;;;5075461;28;20165;-75
2022/03/23 14:28:49;;;;;;;6.72;5.97;;;;;;;;;;5091593;28;20216;-74
2022/03/23 14:31:22;;;;;;;7.07;6.32;;;;;;;;;;5074927;28;20168;-74
2022/03/23 14:34:08;;;;;;;7.00;6.30;;;;;;;;;;5092967;28;20247;-74
2022/03/23 14:36:35;;;;;;;7.25;6.30;;;;;;;;;;5075417;28;20746;-74
2022/03/23 14:39:01;;;;;;;6.90;5.88;;;;;;;;;;5092666;28;20234;-73
2022/03/23 14:41:28;;;;;;;6.35;5.78;;;;;;;;;;5074673;28;20172;-74
2022/03/23 14:43:55;;;;;;;7.32;6.07;;;;;;;;;;5091850;28;20173;-74
2022/03/23 14:46:28;;;;;;;7.00;5.82;;;;;;;;;;5075012;28;20176;-74
2022/03/23 14:49:05;;;;;;;6.55;5.95;;;;;;;;;;5074992;28;20192;-74
2022/03/23 14:51:32;;;;;;;7.00;6.40;;;;;;;;;;5091741;28;20584;-74
2022/03/23 14:53:58;;;;;;;6.97;6.15;;;;;;;;;;5074975;28;20182;-74
2022/03/23 14:56:24;;;;;;;6.32;5.72;;;;;;;;;;5091456;28;20192;-74
2022/03/23 14:58:56;;;;;;;6.10;5.50;;;;;;;;;;5091610;28;20192;-74
2022/03/23 15:01:22;;;;;;;5.75;5.22;;;;;;;;;;5091253;28;20669;-73
2022/03/23 15:03:48;;;;;;;6.40;5.30;;;;;;;;;;5091351;28;20196;-74
2022/03/23 15:14:28;;;;;;;6.35;5.75;;;;;;;;;;5092617;28;20257;-74
2022/03/23 15:16:54;;;;;;;5.95;5.38;;;;;;;;;;5074768;28;20215;-74
2022/03/23 15:19:20;;;;;;;5.78;5.13;;;;;;;;;;5076189;28;20292;-74
2022/03/23 15:21:46;;;;;;;6.05;5.43;;;;;;;;;;5078233;28;20199;-74
2022/03/23 15:24:12;;;;;;;6.22;5.65;;;;;;;;;;5078042;28;20183;-74
2022/03/23 15:26:39;;;;;;;6.57;5.82;;;;;;;;;;5094824;28;20266;-74
2022/03/23 15:29:05;;;;;;;6.70;5.35;;;;;;;;;;5078182;28;20261;-74
2022/03/23 15:31:31;;;;;;;6.25;5.65;;;;;;;;;;5095003;28;20173;-74